createdAt,value
2018-01-11T00:00:36.066Z,52.10
2018-01-11T00:03:02.290Z,45.00
2018-01-11T00:05:28.500Z,51.80
2018-01-11T00:07:54.696Z,43.83
2018-01-11T00:10:20.877Z,45.47
2018-01-11T00:12:47.800Z,53.07
2018-01-11T00:15:14.008Z,47.50
2018-01-11T00:17:40.197Z,48.63
2018-01-11T00:20:06.429Z,49.27
2018-01-11T00:22:33.352Z,49.13
2018-01-11T00:24:59.524Z,51.90
2018-01-11T00:27:25.705Z,45.80
2018-01-11T00:29:51.910Z,53.90
2018-01-11T00:32:18.099Z,44.57
2018-01-11T00:34:45.013Z,43.80
2018-01-11T00:37:11.219Z,46.87
2018-01-11T00:39:37.395Z,41.50
2018-01-11T00:42:03.576Z,40.10
2018-01-11T00:44:29.787Z,43.70
2018-01-11T00:46:56.716Z,48.37
2018-01-11T00:49:22.926Z,40.70
2018-01-11T00:51:49.116Z,44.60
2018-01-11T00:54:15.309Z,42.00
2018-01-11T00:56:41.503Z,43.70
2018-01-11T00:59:07.712Z,44.90
2018-01-11T01:01:34.627Z,45.07
2018-01-11T01:04:00.891Z,41.47
2018-01-11T01:06:27.859Z,42.93
2018-01-11T01:08:54.060Z,40.53
2018-01-11T01:11:20.252Z,42.60
2018-01-11T01:13:46.473Z,43.03
2018-01-11T01:16:12.662Z,40.23
2018-01-11T01:18:38.848Z,40.70
2018-01-11T01:21:05.061Z,39.30
2018-01-11T01:23:32.002Z,41.87
2018-01-11T01:25:58.910Z,40.27
2018-01-11T01:28:25.132Z,43.40
2018-01-11T01:30:51.296Z,39.30
2018-01-11T01:33:17.510Z,42.67
2018-01-11T01:35:43.725Z,43.20
2018-01-11T01:38:09.928Z,40.30
2018-01-11T01:40:36.120Z,45.00
2018-01-11T01:43:02.310Z,45.47
2018-01-11T01:45:28.496Z,41.63
2018-01-11T01:47:54.708Z,50.43
2018-01-11T01:50:20.937Z,44.83
2018-01-11T01:52:47.104Z,41.93
2018-01-11T01:55:13.304Z,43.53
2018-01-11T01:57:39.493Z,41.90
2018-01-11T02:00:06.408Z,40.70
2018-01-11T02:02:32.616Z,38.90
2018-01-11T02:04:58.886Z,43.80
2018-01-11T02:07:25.839Z,39.30
2018-01-11T02:09:52.016Z,41.70
2018-01-11T02:12:18.212Z,42.13
2018-01-11T02:14:45.133Z,42.33
2018-01-11T02:17:11.319Z,43.90
2018-01-11T02:19:38.244Z,39.47
2018-01-11T02:22:04.406Z,41.37
2018-01-11T02:24:30.616Z,38.87
2018-01-11T02:26:56.817Z,41.93
2018-01-11T02:29:22.996Z,40.77
2018-01-11T02:31:49.916Z,41.90
2018-01-11T02:34:16.132Z,37.70
2018-01-11T02:36:42.589Z,46.90
2018-01-11T02:39:08.767Z,40.63
2018-01-11T02:41:34.965Z,38.17
2018-01-11T02:44:01.153Z,37.53
2018-01-11T02:46:27.336Z,38.37
2018-01-11T02:48:53.579Z,39.77
2018-01-11T02:51:19.752Z,36.70
2018-01-11T02:53:45.970Z,34.20
2018-01-11T02:56:12.932Z,37.67
2018-01-11T02:58:39.159Z,38.70
2018-01-11T03:01:05.360Z,36.83
2018-01-11T03:03:31.614Z,35.80
2018-01-11T03:05:57.848Z,37.83
2018-01-11T03:08:24.781Z,41.47
2018-01-11T03:10:51.023Z,37.30
2018-01-11T03:13:17.974Z,37.53
2018-01-11T03:15:44.901Z,38.97
2018-01-11T03:18:11.129Z,40.20
2018-01-11T03:20:37.304Z,40.60
2018-01-11T03:23:04.223Z,41.37
2018-01-11T03:25:30.425Z,44.50
2018-01-11T03:27:56.616Z,45.07
2018-01-11T03:30:23.536Z,39.73
2018-01-11T03:32:49.772Z,42.00
2018-01-11T03:35:15.984Z,40.20
2018-01-11T03:37:42.174Z,33.53
2018-01-11T03:40:08.422Z,34.80
2018-01-11T03:42:34.616Z,37.03
2018-01-11T03:45:00.814Z,40.27
2018-01-11T03:47:27.043Z,39.87
2018-01-11T03:49:53.221Z,35.60
2018-01-11T03:52:19.415Z,39.20
2018-01-11T03:54:45.654Z,35.87
2018-01-11T03:57:11.842Z,38.20
2018-01-11T03:59:38.776Z,37.70
2018-01-11T04:02:04.979Z,41.00
2018-01-11T04:04:31.175Z,37.70
2018-01-11T04:06:59.058Z,42.33
2018-01-11T04:09:25.285Z,38.13
2018-01-11T04:11:51.518Z,36.53
2018-01-11T04:14:17.708Z,40.57
2018-01-11T04:16:43.951Z,38.33
2018-01-11T04:19:10.880Z,36.43
2018-01-11T04:21:37.104Z,34.57
2018-01-11T04:24:03.359Z,35.03
2018-01-11T04:26:30.322Z,36.07
2018-01-11T04:28:56.508Z,41.07
2018-01-11T04:31:22.704Z,38.27
2018-01-11T04:33:48.872Z,36.10
2018-01-11T04:36:15.049Z,40.23
2018-01-11T04:38:41.258Z,37.23
2018-01-11T04:41:07.444Z,35.17
2018-01-11T04:43:34.355Z,42.00
2018-01-11T04:46:00.727Z,34.20
2018-01-11T04:48:27.656Z,35.53
2018-01-11T04:50:54.604Z,35.97
2018-01-11T04:53:20.812Z,39.50
2018-01-11T04:55:46.971Z,39.50
2018-01-11T04:58:13.161Z,35.57
2018-01-11T05:00:45.496Z,34.77
2018-01-11T05:03:12.417Z,35.17
2018-01-11T05:05:38.609Z,36.03
2018-01-11T05:08:05.077Z,30.03
2018-01-11T05:10:31.307Z,35.53
2018-01-11T05:12:57.551Z,36.03
2018-01-11T05:15:23.774Z,43.20
2018-01-11T05:17:49.954Z,35.63
2018-01-11T05:20:16.148Z,35.93
2018-01-11T05:22:42.353Z,32.00
2018-01-11T05:25:08.534Z,34.90
2018-01-11T05:27:34.748Z,39.00
2018-01-11T05:30:00.946Z,34.23
2018-01-11T05:32:27.127Z,34.20
2018-01-11T05:34:53.299Z,37.33
2018-01-11T05:37:20.235Z,35.10
2018-01-11T05:39:47.170Z,31.50
2018-01-11T05:42:13.391Z,35.50
2018-01-11T05:44:39.600Z,37.57
2018-01-11T05:47:05.765Z,45.97
2018-01-11T05:49:31.951Z,43.67
2018-01-11T05:51:58.860Z,38.97
2018-01-11T05:54:25.053Z,38.30
2018-01-11T05:56:51.284Z,38.88
2018-01-11T05:59:17.479Z,36.90
2018-01-11T06:01:44.425Z,40.37
2018-01-11T06:04:11.348Z,41.13
2018-01-11T06:06:38.275Z,34.60
2018-01-11T06:09:04.556Z,41.40
2018-01-11T06:11:31.505Z,36.33
2018-01-11T06:13:57.712Z,36.70
2018-01-11T06:16:23.893Z,38.53
2018-01-11T06:18:50.811Z,35.20
2018-01-11T06:21:17.024Z,31.67
2018-01-11T06:23:43.206Z,43.10
2018-01-11T06:26:10.132Z,38.30
2018-01-11T06:28:36.341Z,37.30
2018-01-11T06:31:02.524Z,36.13
2018-01-11T06:33:29.470Z,42.90
2018-01-11T06:35:56.429Z,36.40
2018-01-11T06:38:23.372Z,39.63
2018-01-11T06:40:50.316Z,38.75
2018-01-11T06:43:17.288Z,39.00
2018-01-11T06:45:43.504Z,41.58
2018-01-11T06:48:09.676Z,34.13
2018-01-11T06:50:35.856Z,36.50
2018-01-11T06:53:02.049Z,37.53
2018-01-11T06:55:28.260Z,44.08
2018-01-11T06:57:54.456Z,51.80
2018-01-11T07:00:20.660Z,47.70
2018-01-11T07:02:47.632Z,43.10
2018-01-11T07:05:13.852Z,39.65
2018-01-11T07:07:40.029Z,38.23
2018-01-11T07:10:06.276Z,42.20
2018-01-11T07:12:32.524Z,40.85
2018-01-11T07:14:58.711Z,40.73
2018-01-11T07:17:24.913Z,40.00
2018-01-11T07:19:51.105Z,38.27
2018-01-11T07:22:18.039Z,39.50
2018-01-11T07:24:44.968Z,38.67
2018-01-11T07:27:29.736Z,42.73
2018-01-11T07:30:08.305Z,39.83
2018-01-11T07:32:34.496Z,37.13
2018-01-11T07:35:01.434Z,43.10
2018-01-11T07:37:27.631Z,39.30
2018-01-11T07:39:53.812Z,36.40
2018-01-11T07:42:19.980Z,41.70
2018-01-11T07:44:46.912Z,43.22
2018-01-11T07:47:13.852Z,42.97
2018-01-11T07:49:40.047Z,43.10
2018-01-11T07:52:06.249Z,43.28
2018-01-11T07:54:32.444Z,49.47
2018-01-11T07:56:58.636Z,47.03
2018-01-11T07:59:24.812Z,48.63
2018-01-11T08:01:51.000Z,50.43
2018-01-11T08:04:17.199Z,50.70
2018-01-11T08:06:44.140Z,47.85
2018-01-11T08:09:11.113Z,40.40
2018-01-11T08:11:37.388Z,42.42
2018-01-11T08:14:03.580Z,50.60
2018-01-11T08:16:30.506Z,42.40
2018-01-11T08:18:56.716Z,41.13
2018-01-11T08:21:22.924Z,39.20
2018-01-11T08:23:49.128Z,44.22
2018-01-11T08:26:16.058Z,46.83
2018-01-11T08:28:42.230Z,42.28
2018-01-11T08:31:08.432Z,39.50
2018-01-11T08:33:35.356Z,36.92
2018-01-11T08:36:01.552Z,41.30
2018-01-11T08:38:27.737Z,37.10
2018-01-11T08:40:53.936Z,41.47
2018-01-11T08:43:20.156Z,40.47
2018-01-11T08:45:46.345Z,41.92
2018-01-11T08:48:13.339Z,38.72
2018-01-11T08:50:39.551Z,35.72
2018-01-11T08:53:05.745Z,38.13
2018-01-11T08:55:31.939Z,42.42
2018-01-11T08:57:58.136Z,39.03
2018-01-11T09:00:25.124Z,43.85
2018-01-11T09:02:51.308Z,44.50
2018-01-11T09:05:17.513Z,40.85
2018-01-11T09:07:43.764Z,42.25
2018-01-11T09:10:10.000Z,50.97
2018-01-11T09:12:36.251Z,47.60
2018-01-11T09:15:03.199Z,44.05
2018-01-11T09:17:29.400Z,48.92
2018-01-11T09:19:55.596Z,51.30
2018-01-11T09:22:22.555Z,50.17
2018-01-11T09:24:48.741Z,54.05
2018-01-11T09:27:14.944Z,156.98
2018-01-11T09:29:41.176Z,90.97
2018-01-11T09:32:07.396Z,50.78
2018-01-11T09:34:33.634Z,58.15
2018-01-11T09:36:59.879Z,53.45
2018-01-11T09:39:26.093Z,58.85
2018-01-11T09:41:52.336Z,67.50
2018-01-11T09:44:18.588Z,53.73
2018-01-11T09:46:44.817Z,61.50
2018-01-11T09:49:11.012Z,55.80
2018-01-11T09:51:37.223Z,50.67
2018-01-11T09:54:04.187Z,56.47
2018-01-11T09:56:31.134Z,48.70
2018-01-11T09:58:57.329Z,49.55
2018-01-11T10:01:23.518Z,53.95
2018-01-11T10:03:50.458Z,44.73
2018-01-11T10:06:17.411Z,42.33
2018-01-11T10:08:44.344Z,43.75
2018-01-11T10:11:10.568Z,44.90
2018-01-11T10:13:36.852Z,42.90
2018-01-11T10:16:03.099Z,53.17
2018-01-11T10:18:29.303Z,52.80
2018-01-11T10:20:56.304Z,47.70
2018-01-11T10:23:22.544Z,40.23
2018-01-11T10:25:48.736Z,41.87
2018-01-11T10:28:15.675Z,43.33
2018-01-11T10:30:42.691Z,41.57
2018-01-11T10:33:08.920Z,38.30
2018-01-11T10:35:35.147Z,42.60
2018-01-11T10:38:01.366Z,42.93
2018-01-11T10:40:27.560Z,42.47
2018-01-11T10:42:53.792Z,50.03
2018-01-11T10:45:20.737Z,42.50
2018-01-11T10:47:46.952Z,46.30
2018-01-11T10:50:13.165Z,42.20
2018-01-11T10:52:39.372Z,46.60
2018-01-11T10:55:06.300Z,42.60
2018-01-11T10:57:33.272Z,44.03
2018-01-11T11:00:00.204Z,48.30
2018-01-11T11:02:32.562Z,42.30
2018-01-11T11:04:58.782Z,45.07
2018-01-11T11:07:24.987Z,43.00
2018-01-11T11:09:51.192Z,46.30
2018-01-11T11:12:17.398Z,42.63
2018-01-11T11:14:43.649Z,44.70
2018-01-11T11:17:10.610Z,51.93
2018-01-11T11:19:37.517Z,37.40
2018-01-11T11:22:03.746Z,41.70
2018-01-11T11:24:29.978Z,41.57
2018-01-11T11:26:56.152Z,43.00
2018-01-11T11:29:22.320Z,39.40
2018-01-11T11:31:48.525Z,35.93
2018-01-11T11:34:14.715Z,37.07
2018-01-11T11:36:40.924Z,40.60
2018-01-11T11:39:07.097Z,37.30
2018-01-11T11:41:33.289Z,36.37
2018-01-11T11:43:59.488Z,32.40
2018-01-11T11:46:25.680Z,34.20
2018-01-11T11:48:51.856Z,32.40
2018-01-11T11:51:18.771Z,32.43
2018-01-11T11:53:44.952Z,27.40
2018-01-11T11:56:11.875Z,38.40
2018-01-11T11:58:38.056Z,40.17
2018-01-11T12:01:04.284Z,29.50
2018-01-11T12:03:31.200Z,32.20
2018-01-11T12:05:57.393Z,35.30
2018-01-11T12:08:23.612Z,31.60
2018-01-11T12:10:49.794Z,32.73
2018-01-11T12:13:16.033Z,37.83
2018-01-11T12:15:42.282Z,28.73
2018-01-11T12:18:09.224Z,30.43
2018-01-11T12:20:35.404Z,32.57
2018-01-11T12:23:01.592Z,33.33
2018-01-11T12:25:28.544Z,33.77
2018-01-11T12:27:54.727Z,37.50
2018-01-11T12:30:20.949Z,35.97
2018-01-11T12:32:47.165Z,34.45
2018-01-11T12:35:14.078Z,35.90
2018-01-11T12:37:40.320Z,38.20
2018-01-11T12:40:06.488Z,36.33
2018-01-11T12:42:33.411Z,31.07
2018-01-11T12:44:59.611Z,39.23
2018-01-11T12:47:25.815Z,32.90
2018-01-11T12:49:52.718Z,35.73
2018-01-11T12:52:19.664Z,38.60
2018-01-11T12:54:45.836Z,40.00
2018-01-11T12:57:12.783Z,38.40
2018-01-11T12:59:39.715Z,44.63
2018-01-11T13:02:06.673Z,36.00
2018-01-11T13:04:32.853Z,37.07
2018-01-11T13:06:59.016Z,45.13
2018-01-11T13:09:25.201Z,49.70
2018-01-11T13:11:52.132Z,44.97
2018-01-11T13:14:18.352Z,37.57
2018-01-11T13:16:44.652Z,46.20
2018-01-11T13:19:10.852Z,50.10
2018-01-11T13:21:37.073Z,42.83
2018-01-11T13:24:04.058Z,47.50
2018-01-11T13:26:30.198Z,47.50
2018-01-11T13:28:56.393Z,55.67
2018-01-11T13:31:23.311Z,44.37
2018-01-11T13:33:49.496Z,47.57
2018-01-11T13:36:15.678Z,51.77
2018-01-11T13:38:41.868Z,51.13
2018-01-11T13:41:08.066Z,53.73
2018-01-11T13:43:35.043Z,58.13
2018-01-11T13:46:01.236Z,55.47
2018-01-11T13:48:27.443Z,52.40
2018-01-11T13:50:53.637Z,64.13
2018-01-11T13:53:20.577Z,57.93
2018-01-11T13:55:47.487Z,63.20
2018-01-11T13:58:13.744Z,62.17
2018-01-11T14:00:40.697Z,61.80
2018-01-11T14:03:07.644Z,57.97
2018-01-11T14:05:33.819Z,61.53
2018-01-11T14:07:59.987Z,69.23
2018-01-11T14:10:26.168Z,54.80
2018-01-11T14:12:53.092Z,66.57
2018-01-11T14:15:19.255Z,65.00
2018-01-11T14:17:46.639Z,72.60
2018-01-11T14:20:12.876Z,55.23
2018-01-11T14:22:39.799Z,69.70
2018-01-11T14:25:06.048Z,52.10
2018-01-11T14:27:32.976Z,51.80
2018-01-11T14:29:59.889Z,65.03
2018-01-11T14:32:26.079Z,51.63
2018-01-11T14:34:53.012Z,57.57
2018-01-11T14:37:19.940Z,59.50
2018-01-11T14:39:46.900Z,54.67
2018-01-11T14:42:13.835Z,58.83
2018-01-11T14:44:40.028Z,52.00
2018-01-11T14:47:06.212Z,65.17
2018-01-11T14:49:32.401Z,49.57
2018-01-11T14:51:58.579Z,59.77
2018-01-11T14:54:24.744Z,55.50
2018-01-11T14:56:50.944Z,53.27
2018-01-11T14:59:17.119Z,55.30
2018-01-11T15:01:43.280Z,60.77
2018-01-11T15:04:09.516Z,50.23
2018-01-11T15:06:35.711Z,55.80
2018-01-11T15:09:01.908Z,64.53
2018-01-11T15:11:28.122Z,55.23
2018-01-11T15:13:54.300Z,62.67
2018-01-11T15:16:20.459Z,63.00
2018-01-11T15:18:46.732Z,56.37
2018-01-11T15:21:12.911Z,70.77
2018-01-11T15:23:39.811Z,60.10
2018-01-11T15:26:06.000Z,51.60
2018-01-11T15:28:32.193Z,56.60
2018-01-11T15:30:59.138Z,52.47
2018-01-11T15:33:25.303Z,55.20
2018-01-11T15:35:52.228Z,57.40
2018-01-11T15:38:18.405Z,50.03
2018-01-11T15:40:44.604Z,48.57
2018-01-11T15:43:10.801Z,55.30
2018-01-11T15:45:36.967Z,48.50
2018-01-11T15:48:03.932Z,43.80
2018-01-11T15:50:30.089Z,47.37
2018-01-11T15:52:56.993Z,43.10
2018-01-11T15:55:23.208Z,47.30
2018-01-11T15:57:49.400Z,53.23
2018-01-11T16:00:15.577Z,53.77
2018-01-11T16:02:41.775Z,50.17
2018-01-11T16:05:07.948Z,40.77
2018-01-11T16:07:34.116Z,49.30
2018-01-11T16:10:01.063Z,47.90
2018-01-11T16:12:27.266Z,46.97
2018-01-11T16:14:53.427Z,49.37
2018-01-11T16:17:19.621Z,41.07
2018-01-11T16:19:45.868Z,39.50
2018-01-11T16:22:12.161Z,47.27
2018-01-11T16:24:38.388Z,48.43
2018-01-11T16:27:05.301Z,42.83
2018-01-11T16:29:31.484Z,49.17
2018-01-11T16:31:58.414Z,43.57
2018-01-11T16:34:25.401Z,50.63
2018-01-11T16:36:51.595Z,39.40
2018-01-11T16:39:17.791Z,50.27
2018-01-11T16:41:44.020Z,44.30
2018-01-11T16:44:10.211Z,39.60
2018-01-11T16:46:37.167Z,50.37
2018-01-11T16:49:03.349Z,49.23
2018-01-11T16:51:29.595Z,43.63
2018-01-11T16:53:55.800Z,43.67
2018-01-11T16:56:22.012Z,47.23
2018-01-11T16:58:48.225Z,41.43
2018-01-11T17:01:14.472Z,37.90
2018-01-11T17:03:40.662Z,35.20
2018-01-11T17:06:07.613Z,37.33
2018-01-11T17:08:33.818Z,30.47
2018-01-11T17:11:00.015Z,33.27
2018-01-11T17:13:26.213Z,33.50
2018-01-11T17:15:52.395Z,43.73
2018-01-11T17:18:18.592Z,36.67
2018-01-11T17:20:45.815Z,32.67
2018-01-11T17:23:12.024Z,39.57
2018-01-11T17:25:38.191Z,34.70
2018-01-11T17:28:04.369Z,35.00
2018-01-11T17:30:31.329Z,32.97
2018-01-11T17:32:58.250Z,30.97
2018-01-11T17:35:24.477Z,33.40
2018-01-11T17:37:50.692Z,32.63
2018-01-11T17:40:16.884Z,31.93
2018-01-11T17:42:43.854Z,32.93
2018-01-11T17:45:10.080Z,39.70
2018-01-11T17:47:36.285Z,45.03
2018-01-11T17:50:02.516Z,27.37
2018-01-11T17:52:29.472Z,26.93
2018-01-11T17:54:56.420Z,33.60
2018-01-11T17:57:23.351Z,34.83
2018-01-11T17:59:49.606Z,27.73
2018-01-11T18:02:15.805Z,29.07
2018-01-11T18:04:42.400Z,29.20
2018-01-11T18:07:08.925Z,32.60
2018-01-11T18:09:35.100Z,25.97
2018-01-11T18:12:01.272Z,31.33
2018-01-11T18:14:27.487Z,28.00
2018-01-11T18:16:53.651Z,27.80
2018-01-11T18:19:19.828Z,24.93
2018-01-11T18:21:46.184Z,26.70
2018-01-11T18:24:12.403Z,26.73
2018-01-11T18:26:38.604Z,29.33
2018-01-11T18:29:05.569Z,24.33
2018-01-11T18:31:31.778Z,24.70
2018-01-11T18:33:58.005Z,26.70
2018-01-11T18:36:24.198Z,25.40
2018-01-11T18:38:50.364Z,20.03
2018-01-11T18:41:16.576Z,23.43
2018-01-11T18:43:42.784Z,19.17
2018-01-11T18:46:08.998Z,19.87
2018-01-11T18:48:35.944Z,21.40
2018-01-11T18:51:02.229Z,24.33
2018-01-11T18:53:28.452Z,31.93
2018-01-11T18:55:54.660Z,21.90
2018-01-11T18:58:20.852Z,25.43
2018-01-11T19:00:47.072Z,21.13
2018-01-11T19:03:13.267Z,20.90
2018-01-11T19:05:39.457Z,19.57
2018-01-11T19:08:05.664Z,27.37
2018-01-11T19:10:31.869Z,24.23
2018-01-11T19:12:58.140Z,22.37
2018-01-11T19:15:24.326Z,25.27
2018-01-11T19:17:50.559Z,27.43
2018-01-11T19:20:17.541Z,28.00
2018-01-11T19:22:43.839Z,26.00
2018-01-11T19:25:10.184Z,29.90
2018-01-11T19:27:37.224Z,33.27
2018-01-11T19:30:03.476Z,27.97
2018-01-11T19:32:29.685Z,25.93
2018-01-11T19:34:56.708Z,25.87
2018-01-11T19:37:22.912Z,26.47
2018-01-11T19:39:49.384Z,27.27
2018-01-11T19:42:16.938Z,31.03
2018-01-11T19:44:43.134Z,26.60
2018-01-11T19:47:09.340Z,27.10
2018-01-11T19:49:35.561Z,31.27
2018-01-11T19:52:01.728Z,27.63
2018-01-11T19:54:27.972Z,27.80
2018-01-11T19:56:54.953Z,29.43
2018-01-11T19:59:21.157Z,33.87
2018-01-11T20:01:47.346Z,35.20
2018-01-11T20:04:13.563Z,42.67
2018-01-11T20:06:39.737Z,34.97
2018-01-11T20:09:06.670Z,31.73
2018-01-11T20:11:32.860Z,30.40
2018-01-11T20:13:59.037Z,34.63
2018-01-11T20:16:25.232Z,31.23
2018-01-11T20:18:51.432Z,35.20
2018-01-11T20:21:18.367Z,32.80
2018-01-11T20:23:45.408Z,34.87
2018-01-11T20:26:11.636Z,38.63
2018-01-11T20:28:37.804Z,44.53
2018-01-11T20:31:04.001Z,38.37
2018-01-11T20:33:30.185Z,45.30
2018-01-11T20:35:57.084Z,39.60
2018-01-11T20:38:23.398Z,48.37
2018-01-11T20:40:49.654Z,45.57
2018-01-11T20:43:15.836Z,44.80
2018-01-11T20:45:42.749Z,50.87
2018-01-11T20:48:08.968Z,44.43
2018-01-11T20:50:35.192Z,45.67
2018-01-11T20:53:01.394Z,51.43
2018-01-11T20:55:27.610Z,45.10
2018-01-11T20:57:54.534Z,46.97
2018-01-11T21:00:20.707Z,48.83
2018-01-11T21:02:47.656Z,59.53
2018-01-11T21:05:14.584Z,61.90
2018-01-11T21:07:41.504Z,64.90
2018-01-11T21:10:07.704Z,58.87
2018-01-11T21:12:33.876Z,54.80
2018-01-11T21:15:00.067Z,55.70
2018-01-11T21:17:26.308Z,51.23
2018-01-11T21:19:52.488Z,58.27
2018-01-11T21:22:18.694Z,55.87
2018-01-11T21:24:45.034Z,53.37
2018-01-11T21:27:11.220Z,59.33
2018-01-11T21:29:38.152Z,55.80
2018-01-11T21:32:04.581Z,67.17
2018-01-11T21:34:30.773Z,53.63
2018-01-11T21:36:56.936Z,56.97
2018-01-11T21:39:23.124Z,54.30
2018-01-11T21:41:50.034Z,60.87
2018-01-11T21:44:16.208Z,55.93
2018-01-11T21:46:42.388Z,60.40
2018-01-11T21:49:08.560Z,48.70
2018-01-11T21:51:34.741Z,48.17
2018-01-11T21:54:00.945Z,47.30
2018-01-11T21:56:27.858Z,57.33
2018-01-11T21:58:54.039Z,51.30
2018-01-11T22:01:20.209Z,46.13
2018-01-11T22:03:46.363Z,67.77
2018-01-11T22:06:12.544Z,50.90
2018-01-11T22:08:38.711Z,45.67
2018-01-11T22:11:04.898Z,41.37
2018-01-11T22:13:31.072Z,45.83
2018-01-11T22:15:57.248Z,44.00
2018-01-11T22:18:24.161Z,41.60
2018-01-11T22:20:50.327Z,45.40
2018-01-11T22:23:16.516Z,44.97
2018-01-11T22:25:42.749Z,47.50
2018-01-11T22:28:08.932Z,45.80
2018-01-11T22:30:35.096Z,43.60
2018-01-11T22:33:01.996Z,46.87
2018-01-11T22:35:28.153Z,38.43
2018-01-11T22:37:55.073Z,39.70
2018-01-11T22:40:21.236Z,47.20
2018-01-11T22:42:48.128Z,38.20
2018-01-11T22:45:14.301Z,35.00
2018-01-11T22:47:40.472Z,35.60
2018-01-11T22:50:06.628Z,35.93
2018-01-11T22:52:32.807Z,34.53
2018-01-11T22:54:58.960Z,32.20
2018-01-11T22:57:25.857Z,40.57
2018-01-11T22:59:52.036Z,35.80
2018-01-11T23:02:18.954Z,37.53
2018-01-11T23:04:45.145Z,34.73
2018-01-11T23:07:12.026Z,34.97
2018-01-11T23:09:38.213Z,34.73
2018-01-11T23:12:05.147Z,30.23
2018-01-11T23:14:31.308Z,32.80
2018-01-11T23:16:57.459Z,32.03
2018-01-11T23:19:23.645Z,25.13
2018-01-11T23:21:50.608Z,25.33
2018-01-11T23:24:17.514Z,29.97
2018-01-11T23:26:43.748Z,28.67
2018-01-11T23:29:09.958Z,29.80
2018-01-11T23:31:36.127Z,24.67
2018-01-11T23:34:03.032Z,24.87
2018-01-11T23:36:29.203Z,26.00
2018-01-11T23:38:55.360Z,26.63
2018-01-11T23:41:21.527Z,23.93
2018-01-11T23:43:47.719Z,23.17
2018-01-11T23:46:13.996Z,23.80
2018-01-11T23:48:40.275Z,25.30
2018-01-11T23:51:06.444Z,26.00
2018-01-11T23:53:33.406Z,25.80
2018-01-11T23:55:59.584Z,24.83
2018-01-11T23:58:25.811Z,23.27
